createdAt,value
2019-02-14T00:02:21.771Z,82.19
2019-02-14T00:04:59.101Z,82.05
2019-02-14T00:07:32.990Z,81.96
2019-02-14T00:10:08.858Z,81.87
2019-02-14T00:12:43.671Z,81.94
2019-02-14T00:15:17.991Z,82.14
2019-02-14T00:17:50.737Z,82.29
2019-02-14T00:20:25.040Z,82.47
2019-02-14T00:22:59.014Z,82.70
2019-02-14T00:25:32.325Z,82.86
2019-02-14T00:28:04.833Z,83.09
2019-02-14T00:30:38.067Z,83.53
2019-02-14T00:33:10.796Z,83.88
2019-02-14T00:35:43.393Z,83.64
2019-02-14T00:38:17.269Z,83.52
2019-02-14T00:40:49.806Z,83.68
2019-02-14T00:43:22.325Z,83.59
2019-02-14T00:45:56.953Z,83.64
2019-02-14T00:48:29.471Z,83.56
2019-02-14T00:51:04.801Z,83.89
2019-02-14T00:53:39.550Z,84.01
2019-02-14T00:56:12.232Z,84.25
2019-02-14T00:58:46.123Z,84.53
2019-02-14T01:01:21.252Z,85.08
2019-02-14T01:03:56.774Z,85.34
2019-02-14T01:06:29.398Z,85.96
2019-02-14T01:09:03.028Z,85.85
2019-02-14T01:11:35.690Z,85.88
2019-02-14T01:14:08.226Z,86.35
2019-02-14T01:16:42.099Z,86.81
2019-02-14T01:19:15.505Z,87.28
2019-02-14T01:21:48.203Z,87.35
2019-02-14T01:24:21.856Z,87.93
2019-02-14T01:26:54.630Z,87.37
2019-02-14T01:29:28.270Z,86.88
2019-02-14T01:32:01.187Z,86.92
2019-02-14T01:34:33.995Z,87.12
2019-02-14T01:37:07.410Z,87.64
2019-02-14T01:39:40.350Z,87.75
2019-02-14T01:42:13.742Z,87.75
2019-02-14T01:44:53.026Z,87.64
2019-02-14T01:47:28.497Z,87.87
2019-02-14T01:50:07.608Z,87.81
2019-02-14T01:52:45.606Z,88.24
2019-02-14T01:55:20.195Z,88.29
2019-02-14T01:57:55.767Z,87.29
2019-02-14T02:00:30.504Z,86.33
2019-02-14T02:03:06.118Z,86.04
2019-02-14T02:05:50.452Z,85.89
2019-02-14T02:08:25.317Z,86.05
2019-02-14T02:11:06.659Z,86.34
2019-02-14T02:13:39.710Z,86.52
2019-02-14T02:16:13.754Z,86.50
2019-02-14T02:18:48.784Z,86.98
2019-02-14T02:21:21.612Z,87.08
2019-02-14T02:23:55.305Z,87.07
2019-02-14T02:26:28.556Z,87.36
2019-02-14T02:32:22.709Z,88.43
2019-02-14T02:34:56.083Z,88.33
2019-02-14T02:37:29.137Z,88.37
2019-02-14T02:40:05.217Z,88.30
2019-02-14T02:42:38.082Z,88.12
2019-02-14T02:45:13.985Z,88.02
2019-02-14T02:47:47.133Z,88.04
2019-02-14T02:50:20.141Z,88.15
2019-02-14T02:52:52.885Z,87.91
2019-02-14T02:55:26.564Z,87.65
2019-02-14T02:58:01.534Z,87.60
2019-02-14T03:00:35.332Z,87.82
2019-02-14T03:03:09.838Z,87.93
2019-02-14T03:05:44.360Z,87.84
2019-02-14T03:08:17.745Z,87.76
2019-02-14T03:10:51.173Z,87.92
2019-02-14T03:13:25.060Z,88.00
2019-02-14T03:15:57.702Z,88.12
2019-02-14T03:18:30.355Z,88.14
2019-02-14T03:21:03.731Z,88.22
2019-02-14T03:23:36.311Z,88.18
2019-02-14T03:26:09.106Z,88.42
2019-02-14T03:28:42.379Z,88.84
2019-02-14T03:31:15.354Z,89.46
2019-02-14T03:33:48.229Z,89.25
2019-02-14T03:36:21.915Z,89.01
2019-02-14T03:38:54.994Z,88.83
2019-02-14T03:41:28.315Z,88.86
2019-02-14T03:44:02.265Z,89.19
2019-02-14T03:46:34.832Z,89.59
2019-02-14T03:49:07.666Z,90.23
2019-02-14T03:51:41.445Z,90.46
2019-02-14T03:54:15.048Z,90.24
2019-02-14T03:56:47.865Z,89.99
2019-02-14T03:59:20.650Z,89.92
2019-02-14T04:01:53.276Z,90.24
2019-02-14T04:04:25.795Z,90.29
2019-02-14T04:06:59.074Z,90.09
2019-02-14T04:09:31.575Z,89.84
2019-02-14T04:12:04.630Z,90.08
2019-02-14T04:14:38.108Z,90.54
2019-02-14T04:17:10.784Z,90.37
2019-02-14T04:19:43.637Z,90.21
2019-02-14T04:22:17.798Z,90.29
2019-02-14T04:24:50.635Z,90.43
2019-02-14T04:27:24.633Z,90.51
2019-02-14T04:29:57.568Z,90.61
2019-02-14T04:32:30.357Z,90.84
2019-02-14T04:35:03.013Z,91.31
2019-02-14T04:37:36.065Z,91.41
2019-02-14T04:40:11.452Z,91.63
2019-02-14T04:42:45.331Z,91.64
2019-02-14T04:45:18.676Z,91.75
2019-02-14T04:47:51.426Z,91.94
2019-02-14T04:50:24.038Z,92.26
2019-02-14T04:52:57.233Z,92.86
2019-02-14T04:55:31.732Z,93.00
2019-02-14T04:58:04.831Z,92.87
2019-02-14T05:00:37.618Z,92.94
2019-02-14T05:03:10.250Z,92.96
2019-02-14T05:05:43.682Z,92.81
2019-02-14T05:08:18.366Z,92.94
2019-02-14T05:10:52.520Z,93.24
2019-02-14T05:13:26.477Z,93.20
2019-02-14T05:15:59.938Z,93.37
2019-02-14T05:18:33.499Z,93.75
2019-02-14T05:21:06.044Z,94.00
2019-02-14T05:23:40.312Z,94.28
2019-02-14T05:26:13.037Z,94.70
2019-02-14T05:28:45.947Z,94.35
2019-02-14T05:31:19.406Z,94.12
2019-02-14T05:33:52.878Z,94.18
2019-02-14T05:36:25.386Z,94.73
2019-02-14T05:38:58.378Z,94.88
2019-02-14T05:41:30.942Z,94.56
2019-02-14T05:44:03.595Z,94.41
2019-02-14T05:46:36.490Z,94.33
2019-02-14T05:49:09.352Z,94.52
2019-02-14T05:51:41.891Z,94.65
2019-02-14T05:54:14.931Z,94.54
2019-02-14T05:56:47.430Z,94.70
2019-02-14T05:59:20.061Z,95.02
2019-02-14T06:01:53.002Z,95.18
2019-02-14T06:04:25.582Z,95.13
2019-02-14T06:07:01.037Z,95.08
2019-02-14T06:09:34.220Z,95.06
2019-02-14T06:12:20.458Z,95.52
2019-02-14T06:14:53.375Z,95.78
2019-02-14T06:17:25.796Z,95.63
2019-02-14T06:19:59.679Z,95.58
2019-02-14T06:22:32.302Z,95.60
2019-02-14T06:25:05.192Z,95.73
2019-02-14T06:27:37.665Z,95.83
2019-02-14T06:30:14.912Z,95.88
2019-02-14T06:32:47.719Z,95.96
2019-02-14T06:35:21.705Z,96.13
2019-02-14T06:37:56.306Z,95.96
2019-02-14T06:40:31.062Z,95.72
2019-02-14T06:43:05.209Z,95.68
2019-02-14T06:45:38.564Z,95.32
2019-02-14T06:48:11.995Z,95.04
2019-02-14T06:50:45.695Z,94.95
2019-02-14T06:53:19.979Z,95.33
2019-02-14T06:55:52.585Z,95.65
2019-02-14T06:58:25.510Z,95.70
2019-02-14T07:00:58.135Z,96.01
2019-02-14T07:03:33.295Z,96.22
2019-02-14T07:06:06.515Z,96.28
2019-02-14T07:08:39.930Z,96.47
2019-02-14T07:11:12.503Z,96.51
2019-02-14T07:13:45.090Z,96.50
2019-02-14T07:16:18.072Z,96.56
2019-02-14T07:18:52.458Z,96.77
2019-02-14T07:21:27.403Z,96.95
2019-02-14T07:24:01.457Z,97.30
2019-02-14T07:26:34.137Z,97.59
2019-02-14T07:29:06.644Z,97.49
2019-02-14T07:31:39.195Z,97.42
2019-02-14T07:34:13.005Z,97.45
2019-02-14T07:36:46.781Z,97.40
2019-02-14T07:39:21.067Z,97.41
2019-02-14T07:41:57.041Z,97.50
2019-02-14T07:44:31.450Z,97.75
2019-02-14T07:47:05.103Z,97.85
2019-02-14T07:49:40.611Z,97.97
2019-02-14T07:52:15.301Z,97.97
2019-02-14T07:54:48.042Z,97.85
2019-02-14T07:57:21.442Z,97.92
2019-02-14T07:59:54.748Z,98.05
2019-02-14T08:02:27.327Z,98.38
2019-02-14T08:05:00.445Z,98.63
2019-02-14T08:07:36.187Z,98.61
2019-02-14T08:10:11.650Z,98.72
2019-02-14T08:12:44.823Z,98.08
2019-02-14T08:15:17.713Z,97.50
2019-02-14T08:17:51.129Z,97.24
2019-02-14T08:20:25.048Z,97.12
2019-02-14T08:22:58.178Z,97.01
2019-02-14T08:25:30.745Z,97.12
2019-02-14T08:28:03.768Z,97.26
2019-02-14T08:30:36.364Z,97.37
2019-02-14T08:33:09.735Z,97.60
2019-02-14T08:35:51.537Z,97.80
2019-02-14T08:38:24.642Z,97.97
2019-02-14T08:40:57.582Z,97.73
2019-02-14T08:43:32.378Z,97.51
2019-02-14T08:46:05.150Z,97.44
2019-02-14T08:48:37.833Z,96.94
2019-02-14T08:51:13.976Z,96.04
2019-02-14T08:53:47.031Z,95.14
2019-02-14T08:56:19.657Z,93.75
2019-02-14T08:58:52.686Z,91.72
2019-02-14T09:01:25.256Z,90.80
2019-02-14T09:04:00.285Z,90.06
2019-02-14T09:06:36.094Z,88.48
2019-02-14T09:09:09.548Z,88.63
2019-02-14T09:11:42.674Z,88.29
2019-02-14T09:14:17.806Z,83.82
2019-02-14T09:16:51.586Z,80.54
2019-02-14T09:19:24.187Z,75.08
2019-02-14T09:21:58.481Z,72.42
2019-02-14T09:24:31.171Z,72.53
2019-02-14T09:27:04.382Z,73.97
2019-02-14T09:29:39.372Z,72.46
2019-02-14T09:32:19.638Z,67.11
2019-02-14T09:34:54.487Z,62.96
2019-02-14T09:37:30.037Z,60.67
2019-02-14T09:40:08.257Z,58.69
2019-02-14T09:42:42.462Z,55.53
2019-02-14T09:45:18.327Z,52.38
2019-02-14T09:47:54.206Z,48.53
2019-02-14T09:50:26.971Z,43.77
2019-02-14T09:53:01.733Z,42.75
2019-02-14T09:55:36.591Z,41.20
2019-02-14T09:58:09.127Z,43.05
2019-02-14T10:00:43.122Z,40.58
2019-02-14T10:03:16.712Z,41.21
2019-02-14T10:05:58.534Z,39.35
2019-02-14T10:08:33.536Z,40.62
2019-02-14T10:11:10.606Z,38.94
2019-02-14T10:13:46.079Z,34.40
2019-02-14T10:16:19.042Z,33.12
2019-02-14T10:18:51.922Z,33.21
2019-02-14T10:21:26.242Z,32.28
2019-02-14T10:23:58.825Z,32.78
2019-02-14T10:26:34.246Z,34.40
2019-02-14T10:29:10.048Z,34.59
2019-02-14T10:31:43.291Z,34.10
2019-02-14T10:34:15.692Z,33.96
2019-02-14T10:36:48.892Z,33.30
2019-02-14T10:39:21.534Z,31.96
2019-02-14T10:41:54.579Z,31.23
2019-02-14T10:44:28.557Z,30.89
2019-02-14T10:47:01.883Z,31.09
2019-02-14T10:49:36.550Z,30.10
2019-02-14T10:52:11.254Z,29.07
2019-02-14T10:54:45.663Z,29.61
2019-02-14T10:57:20.382Z,28.23
2019-02-14T10:59:55.103Z,28.18
2019-02-14T11:02:30.243Z,27.66
2019-02-14T11:05:06.321Z,27.22
2019-02-14T11:07:42.183Z,26.99
2019-02-14T11:10:15.470Z,27.89
2019-02-14T11:12:48.542Z,28.16
2019-02-14T11:15:22.587Z,28.33
2019-02-14T11:17:56.014Z,28.03
2019-02-14T11:20:28.359Z,28.22
2019-02-14T11:23:01.881Z,27.70
2019-02-14T11:25:35.621Z,27.32
2019-02-14T11:28:09.554Z,27.21
2019-02-14T11:30:42.556Z,25.63
2019-02-14T11:33:19.907Z,26.24
2019-02-14T11:35:53.023Z,26.58
2019-02-14T11:38:29.295Z,27.35
2019-02-14T11:41:02.771Z,28.08
2019-02-14T11:43:37.983Z,27.60
2019-02-14T11:46:10.675Z,27.49
2019-02-14T11:48:47.934Z,26.76
2019-02-14T11:51:23.475Z,26.92
2019-02-14T11:54:01.369Z,27.22
2019-02-14T11:56:38.270Z,27.27
2019-02-14T11:59:11.527Z,27.14
2019-02-14T12:01:45.206Z,26.55
2019-02-14T12:04:17.606Z,25.88
2019-02-14T12:06:55.061Z,25.74
2019-02-14T12:09:36.625Z,25.33
2019-02-14T12:12:13.609Z,24.77
2019-02-14T12:14:46.047Z,24.73
2019-02-14T12:17:23.980Z,25.33
2019-02-14T12:19:58.630Z,24.56
2019-02-14T12:22:33.930Z,24.61
2019-02-14T12:25:11.537Z,24.94
2019-02-14T12:27:44.025Z,25.03
2019-02-14T12:30:18.451Z,25.78
2019-02-14T12:32:51.179Z,25.36
2019-02-14T12:35:24.611Z,24.78
2019-02-14T12:37:59.094Z,24.23
2019-02-14T12:40:34.432Z,23.22
2019-02-14T12:43:07.403Z,22.30
2019-02-14T12:45:42.293Z,21.77
2019-02-14T12:48:18.882Z,21.86
2019-02-14T12:50:52.363Z,23.54
2019-02-14T12:53:25.438Z,24.40
2019-02-14T12:55:58.304Z,24.25
2019-02-14T12:58:30.762Z,22.72
2019-02-14T13:01:03.372Z,22.30
2019-02-14T13:03:38.990Z,21.78
2019-02-14T13:06:12.257Z,21.57
2019-02-14T13:08:47.932Z,22.31
2019-02-14T13:11:20.326Z,22.96
2019-02-14T13:13:55.182Z,22.79
2019-02-14T13:16:30.287Z,22.93
2019-02-14T13:19:06.505Z,22.71
2019-02-14T13:21:39.441Z,22.46
2019-02-14T13:24:16.737Z,21.92
2019-02-14T13:26:55.284Z,20.83
2019-02-14T13:29:29.563Z,20.54
2019-02-14T13:32:03.545Z,20.22
2019-02-14T13:34:35.966Z,19.72
2019-02-14T13:37:09.102Z,19.23
2019-02-14T13:39:45.996Z,19.87
2019-02-14T13:42:18.555Z,19.31
2019-02-14T13:44:51.716Z,19.21
2019-02-14T13:47:27.312Z,18.97
2019-02-14T13:50:00.453Z,19.91
2019-02-14T13:52:33.372Z,20.13
2019-02-14T13:55:07.130Z,19.36
2019-02-14T13:57:39.752Z,19.52
2019-02-14T14:00:19.726Z,18.78
2019-02-14T14:02:52.142Z,19.03
2019-02-14T14:05:25.074Z,19.30
2019-02-14T14:07:58.597Z,19.52
2019-02-14T14:10:31.587Z,19.02
2019-02-14T14:13:05.793Z,18.08
2019-02-14T14:15:39.114Z,18.68
2019-02-14T14:18:12.070Z,18.26
2019-02-14T14:20:47.692Z,18.94
2019-02-14T14:23:21.638Z,19.26
2019-02-14T14:25:54.596Z,19.03
2019-02-14T14:28:26.980Z,17.75
2019-02-14T14:31:00.208Z,17.47
2019-02-14T14:33:33.239Z,17.08
2019-02-14T14:36:07.420Z,16.70
2019-02-14T14:38:40.390Z,16.13
2019-02-14T14:41:14.057Z,16.36
2019-02-14T14:44:09.858Z,16.50
2019-02-14T14:46:49.773Z,17.23
2019-02-14T14:49:24.002Z,17.21
2019-02-14T14:51:56.350Z,16.62
2019-02-14T14:54:29.694Z,15.65
2019-02-14T14:57:03.685Z,15.44
2019-02-14T14:59:38.713Z,15.39
2019-02-14T15:02:22.423Z,15.56
2019-02-14T15:05:06.477Z,16.41
2019-02-14T15:08:11.816Z,16.48
2019-02-14T15:10:53.617Z,17.12
2019-02-14T15:13:28.427Z,17.42
2019-02-14T15:16:00.880Z,17.62
2019-02-14T15:18:35.792Z,17.62
2019-02-14T15:21:11.754Z,17.62
2019-02-14T15:23:52.321Z,16.78
2019-02-14T15:26:26.927Z,15.91
2019-02-14T15:29:02.069Z,16.38
2019-02-14T15:31:35.200Z,16.52
2019-02-14T15:34:09.136Z,16.84
2019-02-14T15:36:54.815Z,17.11
2019-02-14T15:39:29.197Z,17.55
2019-02-14T15:42:03.221Z,17.78
2019-02-14T15:44:38.555Z,18.31
2019-02-14T15:47:11.016Z,18.32
2019-02-14T15:49:46.951Z,18.73
2019-02-14T15:52:22.923Z,18.95
2019-02-14T15:54:59.438Z,19.15
2019-02-14T15:57:32.576Z,19.42
2019-02-14T16:00:10.748Z,19.42
2019-02-14T16:02:50.276Z,19.92
2019-02-14T16:05:25.603Z,20.52
2019-02-14T16:08:23.843Z,20.97
2019-02-14T16:11:03.927Z,21.27
2019-02-14T16:13:37.385Z,21.45
2019-02-14T16:16:35.675Z,21.57
2019-02-14T16:19:46.956Z,21.89
2019-02-14T16:22:48.160Z,22.12
2019-02-14T16:25:50.020Z,22.60
2019-02-14T16:28:30.417Z,22.82
2019-02-14T16:31:03.570Z,22.98
2019-02-14T16:33:37.727Z,23.29
2019-02-14T16:36:11.898Z,23.75
2019-02-14T16:38:48.261Z,24.11
2019-02-14T16:41:24.478Z,24.69
2019-02-14T16:44:04.013Z,25.31
2019-02-14T16:46:36.625Z,26.11
2019-02-14T16:49:11.869Z,27.04
2019-02-14T16:51:48.277Z,27.48
2019-02-14T16:54:23.287Z,28.16
2019-02-14T16:56:57.415Z,29.00
2019-02-14T16:59:30.604Z,29.69
2019-02-14T17:02:05.709Z,30.28
2019-02-14T17:04:40.032Z,30.34
2019-02-14T17:07:13.738Z,30.97
2019-02-14T17:09:48.227Z,31.73
2019-02-14T17:12:21.924Z,32.03
2019-02-14T17:14:54.651Z,32.18
2019-02-14T17:17:30.245Z,32.58
2019-02-14T17:20:04.598Z,33.15
2019-02-14T17:22:37.485Z,33.48
2019-02-14T17:25:11.137Z,33.68
2019-02-14T17:27:45.323Z,34.09
2019-02-14T17:30:20.373Z,34.51
2019-02-14T17:32:53.251Z,35.36
2019-02-14T17:35:27.585Z,35.92
2019-02-14T17:38:01.118Z,36.30
2019-02-14T17:40:34.303Z,36.54
2019-02-14T17:43:08.536Z,36.72
2019-02-14T17:45:46.352Z,36.95
2019-02-14T17:48:30.127Z,37.08
2019-02-14T17:51:03.521Z,37.72
2019-02-14T17:53:37.205Z,38.03
2019-02-14T17:56:10.629Z,38.20
2019-02-14T17:58:44.821Z,38.78
2019-02-14T18:01:18.446Z,38.63
2019-02-14T18:03:52.113Z,38.63
2019-02-14T18:06:33.517Z,38.63
2019-02-14T18:09:08.998Z,38.77
2019-02-14T18:11:43.096Z,38.70
2019-02-14T18:14:18.695Z,38.88
2019-02-14T18:16:54.078Z,39.11
2019-02-14T18:19:30.898Z,39.09
2019-02-14T18:22:06.764Z,39.05
2019-02-14T18:24:45.762Z,39.19
2019-02-14T18:27:27.652Z,39.20
2019-02-14T18:30:00.422Z,39.37
2019-02-14T18:32:59.155Z,39.34
2019-02-14T18:35:34.986Z,39.78
2019-02-14T18:38:08.441Z,39.18
2019-02-14T18:40:42.505Z,38.77
2019-02-14T18:43:18.670Z,38.75
2019-02-14T18:45:58.954Z,38.73
2019-02-14T18:48:35.846Z,38.92
2019-02-14T18:51:10.849Z,39.50
2019-02-14T18:53:43.711Z,39.79
2019-02-14T18:56:18.494Z,40.06
2019-02-14T18:58:51.399Z,40.00
2019-02-14T19:01:24.560Z,40.64
2019-02-14T19:04:01.655Z,40.37
2019-02-14T19:06:36.988Z,40.25
2019-02-14T19:09:17.726Z,40.14
2019-02-14T19:11:54.612Z,39.86
2019-02-14T19:14:38.791Z,40.02
2019-02-14T19:17:13.851Z,40.26
2019-02-14T19:19:52.095Z,40.43
2019-02-14T19:22:28.388Z,40.66
2019-02-14T19:25:02.362Z,40.62
2019-02-14T19:27:38.449Z,40.83
2019-02-14T19:30:21.290Z,40.91
2019-02-14T19:32:57.269Z,41.26
2019-02-14T19:35:42.769Z,41.69
2019-02-14T19:38:15.747Z,41.69
2019-02-14T19:40:51.198Z,42.02
2019-02-14T19:43:27.348Z,42.09
2019-02-14T19:46:02.335Z,42.39
2019-02-14T19:48:35.751Z,42.43
2019-02-14T19:51:10.739Z,42.39
2019-02-14T19:53:47.238Z,42.34
2019-02-14T19:56:22.847Z,42.51
2019-02-14T19:58:58.786Z,42.71
2019-02-14T20:01:35.567Z,42.54
2019-02-14T20:04:12.322Z,42.38
2019-02-14T20:06:46.921Z,42.28
2019-02-14T20:09:19.750Z,42.28
2019-02-14T20:11:55.029Z,42.28
2019-02-14T20:14:30.863Z,42.38
2019-02-14T20:17:04.944Z,42.24
2019-02-14T20:19:37.776Z,42.31
2019-02-14T20:22:12.862Z,42.46
2019-02-14T20:24:46.462Z,42.67
2019-02-14T20:27:21.214Z,43.01
2019-02-14T20:29:58.155Z,42.98
2019-02-14T20:32:33.335Z,42.85
2019-02-14T20:35:07.892Z,42.95
2019-02-14T20:37:41.804Z,42.94
2019-02-14T20:40:15.149Z,43.06
2019-02-14T20:42:49.401Z,43.01
2019-02-14T20:45:23.333Z,42.80
2019-02-14T20:47:57.452Z,42.46
2019-02-14T20:50:34.872Z,42.29
2019-02-14T20:53:10.504Z,42.21
2019-02-14T20:55:49.303Z,42.13
2019-02-14T20:58:23.754Z,42.36
2019-02-14T21:00:59.907Z,42.22
2019-02-14T21:03:33.400Z,42.22
2019-02-14T21:06:07.309Z,42.08
2019-02-14T21:08:40.832Z,42.11
2019-02-14T21:11:15.843Z,42.07
2019-02-14T21:13:48.472Z,42.14
2019-02-14T21:16:22.443Z,42.11
2019-02-14T21:19:01.018Z,42.16
2019-02-14T21:21:35.767Z,42.56
2019-02-14T21:24:09.183Z,42.60
2019-02-14T21:26:45.313Z,43.00
2019-02-14T21:29:21.856Z,43.30
2019-02-14T21:31:56.978Z,43.36
2019-02-14T21:34:37.591Z,43.61
2019-02-14T21:37:13.932Z,43.46
2019-02-14T21:39:47.816Z,43.45
2019-02-14T21:42:22.517Z,43.79
2019-02-14T21:45:06.134Z,43.96
2019-02-14T21:47:40.569Z,43.73
2019-02-14T21:50:20.871Z,43.23
2019-02-14T21:52:54.732Z,42.91
2019-02-14T21:55:28.339Z,42.83
2019-02-14T21:58:04.974Z,42.77
2019-02-14T22:00:39.063Z,42.96
2019-02-14T22:03:19.974Z,43.07
2019-02-14T22:05:52.786Z,42.91
2019-02-14T22:08:26.854Z,43.14
2019-02-14T22:11:04.353Z,42.99
2019-02-14T22:13:37.567Z,43.11
2019-02-14T22:16:10.191Z,43.25
2019-02-14T22:18:45.904Z,43.19
2019-02-14T22:21:22.285Z,43.04
2019-02-14T22:23:54.838Z,43.29
2019-02-14T22:26:27.877Z,43.35
2019-02-14T22:29:02.338Z,43.34
2019-02-14T22:31:36.327Z,43.32
2019-02-14T22:34:10.390Z,43.28
2019-02-14T22:36:43.036Z,42.91
2019-02-14T22:39:15.684Z,43.06
2019-02-14T22:41:50.020Z,43.16
2019-02-14T22:44:22.771Z,43.21
2019-02-14T22:46:55.473Z,43.27
2019-02-14T22:49:28.644Z,43.14
2019-02-14T22:52:01.725Z,42.96
2019-02-14T22:54:35.536Z,42.81
2019-02-14T22:57:09.404Z,42.92
2019-02-14T22:59:45.951Z,42.68
2019-02-14T23:02:23.291Z,42.28
2019-02-14T23:05:05.345Z,41.41
2019-02-14T23:07:39.574Z,40.48
2019-02-14T23:10:13.564Z,39.30
2019-02-14T23:12:55.385Z,38.84
2019-02-14T23:15:29.347Z,38.41
2019-02-14T23:18:04.379Z,37.97
2019-02-14T23:20:37.170Z,37.65
2019-02-14T23:23:09.945Z,37.26
2019-02-14T23:25:44.079Z,36.93
2019-02-14T23:28:16.712Z,36.74
2019-02-14T23:30:49.287Z,36.50
2019-02-14T23:33:22.339Z,36.24
2019-02-14T23:35:54.901Z,35.64
2019-02-14T23:38:28.973Z,35.71
2019-02-14T23:41:03.054Z,35.79
2019-02-14T23:43:37.020Z,36.02
2019-02-14T23:46:11.209Z,36.12
2019-02-14T23:48:45.898Z,36.21
2019-02-14T23:51:18.691Z,36.36
2019-02-14T23:53:55.719Z,36.67
2019-02-14T23:56:32.675Z,36.88
2019-02-14T23:59:05.295Z,36.91
